Time;durP1;ratioP1;P1;durP2;ratioP2;P2;SDS_P1;SDS_P2;PMS_P1;PMS_P2;Temp;Humidity;BMP_temperature;BMP_pressure;BME280_temperature;BME280_humidity;BME280_pressure;Samples;Min_cycle;Max_cycle;Signal;HPM_P1;HPM_P2
2021/08/22 00:00:09;;;;;;;7.10;2.28;;;;;;;26.31;48.04;100715.84;4971026;28;20043;-70
2021/08/22 00:02:36;;;;;;;8.10;2.50;;;;;;;26.29;48.19;100697.91;4971054;28;20097;-71
2021/08/22 00:05:04;;;;;;;10.45;2.22;;;;;;;26.26;48.27;100708.88;4972145;28;20050;-70
2021/08/22 00:07:32;;;;;;;8.63;2.72;;;;;;;26.27;48.33;100705.22;4971079;28;20070;-71
2021/08/22 00:10:01;;;;;;;4.88;2.15;;;;;;;26.27;48.50;100700.69;4970862;28;20486;-71
2021/08/22 00:12:28;;;;;;;7.97;2.45;;;;;;;26.25;48.42;100708.03;4970915;28;20047;-70
2021/08/22 00:14:55;;;;;;;9.10;2.30;;;;;;;26.23;49.00;100706.31;4968935;28;20684;-71
2021/08/22 00:17:23;;;;;;;8.30;2.35;;;;;;;26.23;49.21;100700.88;4971453;28;20051;-71
2021/08/22 00:19:50;;;;;;;9.27;2.72;;;;;;;26.21;48.82;100700.97;4969779;28;20380;-71
2021/08/22 00:22:18;;;;;;;10.05;3.05;;;;;;;26.21;49.36;100690.13;4971130;28;20058;-70
2021/08/22 00:24:45;;;;;;;7.13;2.33;;;;;;;26.20;49.05;100694.66;4970760;28;20507;-70
2021/08/22 00:27:14;;;;;;;6.25;2.10;;;;;;;26.22;49.10;100691.91;4971084;28;20054;-71
2021/08/22 00:29:42;;;;;;;12.40;2.60;;;;;;;26.20;49.23;100688.38;4971298;28;20442;-71
2021/08/22 00:32:10;;;;;;;5.40;1.98;;;;;;;26.16;49.44;100689.50;4970615;28;20074;-71
2021/08/22 00:34:37;;;;;;;10.40;2.30;;;;;;;26.17;49.55;100688.53;4970511;28;20047;-71
2021/08/22 00:37:05;;;;;;;10.10;2.55;;;;;;;26.17;49.47;100693.97;4971051;28;20582;-70
2021/08/22 00:39:33;;;;;;;6.05;3.00;;;;;;;26.15;49.54;100691.31;4971316;28;20046;-71
2021/08/22 00:42:01;;;;;;;6.57;2.90;;;;;;;26.14;49.68;100676.03;4971428;28;20070;-71
2021/08/22 00:44:30;;;;;;;9.18;2.65;;;;;;;26.14;50.24;100684.16;4970590;28;20069;-71
2021/08/22 00:46:58;;;;;;;8.65;2.70;;;;;;;26.15;50.33;100679.63;4970994;28;20050;-71
2021/08/22 00:49:26;;;;;;;8.02;2.20;;;;;;;26.13;50.25;100685.09;4970760;28;20065;-71
2021/08/22 00:51:54;;;;;;;6.00;2.70;;;;;;;26.12;50.93;100691.47;4966754;28;20031;-72
2021/08/22 00:54:21;;;;;;;7.78;2.35;;;;;;;26.13;50.86;100689.63;4970827;28;20046;-71
2021/08/22 00:56:49;;;;;;;7.18;2.50;;;;;;;26.13;50.84;100681.50;4970600;28;20047;-71
2021/08/22 00:59:20;;;;;;;9.75;2.42;;;;;;;26.11;51.14;100676.19;4966377;28;20051;-71
2021/08/22 01:01:51;;;;;;;7.68;2.40;;;;;;;26.08;51.57;100678.16;4971000;28;20047;-71
2021/08/22 01:04:20;;;;;;;8.88;2.75;;;;;;;26.07;51.48;100680.00;4970816;28;20050;-72
2021/08/22 01:06:59;;;;;;;8.23;3.08;;;;;;;26.08;51.80;100680.88;4970476;28;20102;-71
2021/08/22 01:09:31;;;;;;;9.30;2.30;;;;;;;26.07;51.67;100679.13;4970824;28;20043;-71
2021/08/22 01:12:03;;;;;;;7.65;2.63;;;;;;;26.07;52.15;100679.13;4970924;28;20041;-72
2021/08/22 01:14:36;;;;;;;13.77;2.60;;;;;;;26.05;52.27;100662.97;4969898;28;20050;-71
2021/08/22 01:17:06;;;;;;;7.30;2.47;;;;;;;26.05;51.84;100678.34;4970320;28;20054;-71
2021/08/22 01:19:55;;;;;;;5.63;2.33;;;;;;;26.06;52.11;100678.22;4970519;28;20046;-72
2021/08/22 01:22:25;;;;;;;7.28;2.42;;;;;;;26.03;52.70;100667.56;4970463;28;20047;-71
2021/08/22 01:24:54;;;;;;;7.35;2.75;;;;;;;26.01;52.62;100672.19;4970552;28;20043;-71
2021/08/22 01:27:22;;;;;;;6.75;2.25;;;;;;;26.02;52.57;100663.13;4968301;28;20050;-71
2021/08/22 01:29:55;;;;;;;9.82;2.85;;;;;;;26.05;52.66;100676.50;4972998;28;20046;-71
2021/08/22 01:32:24;;;;;;;11.18;3.45;;;;;;;26.04;52.91;100669.34;4972987;28;20462;-72
2021/08/22 01:34:53;;;;;;;9.75;2.55;;;;;;;26.02;53.51;100673.06;4972088;28;20038;-71
2021/08/22 01:37:20;;;;;;;6.32;1.95;;;;;;;25.99;53.50;100667.81;4974258;28;20078;-71
2021/08/22 01:39:48;;;;;;;12.45;2.60;;;;;;;25.98;53.90;100675.06;4973833;28;20042;-71
2021/08/22 01:42:16;;;;;;;9.23;2.85;;;;;;;25.96;54.44;100676.06;4973823;28;20073;-72
2021/08/22 01:44:44;;;;;;;6.22;2.67;;;;;;;25.93;54.73;100665.41;4956747;28;20050;-71
2021/08/22 01:47:12;;;;;;;6.32;2.35;;;;;;;25.92;54.65;100669.94;4973986;28;20043;-71
2021/08/22 01:49:41;;;;;;;10.40;2.75;;;;;;;25.97;54.14;100667.00;4972859;28;20067;-71
2021/08/22 01:52:11;;;;;;;12.82;3.20;;;;;;;25.96;54.55;100668.84;4973215;28;20062;-71
2021/08/22 01:54:39;;;;;;;11.00;3.20;;;;;;;25.93;54.53;100677.09;4973692;28;20043;-71
2021/08/22 01:57:07;;;;;;;7.68;2.67;;;;;;;25.95;54.90;100655.38;4973799;28;20042;-71
2021/08/22 01:59:36;;;;;;;8.32;3.22;;;;;;;25.93;54.52;100668.97;4974376;28;20074;-71
2021/08/22 02:02:04;;;;;;;6.40;2.13;;;;;;;25.93;54.20;100674.38;4973108;28;20043;-71
2021/08/22 02:04:37;;;;;;;9.32;2.13;;;;;;;25.92;54.47;100671.78;4973275;28;20407;-71
2021/08/22 02:07:12;;;;;;;7.75;3.08;;;;;;;25.91;54.57;100670.91;4973817;28;20043;-71
2021/08/22 02:09:46;;;;;;;9.85;3.17;;;;;;;25.90;54.52;100674.56;4970087;28;20494;-72
2021/08/22 02:12:17;;;;;;;5.03;2.17;;;;;;;25.89;54.91;100661.09;4973084;28;20042;-72
2021/08/22 02:14:53;;;;;;;7.50;3.00;;;;;;;25.87;55.25;100680.09;4973530;28;20042;-71
2021/08/22 02:17:23;;;;;;;11.68;3.15;;;;;;;25.87;55.18;100668.41;4973214;28;20097;-71
2021/08/22 02:19:52;;;;;;;8.70;2.88;;;;;;;25.86;55.08;100666.66;4973242;28;20102;-71
2021/08/22 02:22:22;;;;;;;7.22;2.70;;;;;;;25.88;54.70;100671.03;4972923;28;20063;-71
2021/08/22 02:24:51;;;;;;;8.40;2.63;;;;;;;25.86;54.83;100666.66;4972938;28;20082;-70
2021/08/22 02:27:19;;;;;;;10.80;2.15;;;;;;;25.80;55.36;100679.53;4972272;28;20435;-71
2021/08/22 02:29:48;;;;;;;9.43;3.20;;;;;;;25.80;54.96;100671.41;4970034;28;20043;-71
2021/08/22 02:32:16;;;;;;;4.70;2.55;;;;;;;25.80;55.49;100666.00;4973156;28;20499;-71
2021/08/22 02:34:44;;;;;;;11.32;2.50;;;;;;;25.80;55.33;100670.53;4972370;28;20043;-71
2021/08/22 02:37:11;;;;;;;8.98;2.78;;;;;;;25.81;55.46;100675.00;4972697;28;20106;-71
2021/08/22 02:39:40;;;;;;;12.05;2.85;;;;;;;25.81;55.41;100677.69;4972154;28;20038;-71
2021/08/22 02:42:08;;;;;;;7.22;3.22;;;;;;;25.77;55.21;100673.41;4972273;28;20035;-71
2021/08/22 02:44:36;;;;;;;6.07;2.38;;;;;;;25.74;55.25;100666.28;4972483;28;20050;-69
2021/08/22 02:47:03;;;;;;;5.70;2.85;;;;;;;25.78;55.24;100680.56;4973071;28;20061;-72
2021/08/22 02:49:30;;;;;;;11.23;2.67;;;;;;;25.77;55.19;100676.97;4972712;28;20046;-70
2021/08/22 02:51:58;;;;;;;8.10;2.30;;;;;;;25.78;55.54;100678.75;4971714;28;20039;-71
2021/08/22 02:54:25;;;;;;;8.70;2.63;;;;;;;25.78;55.27;100677.84;4972762;28;20059;-71
2021/08/22 02:56:54;;;;;;;10.77;2.75;;;;;;;25.78;55.00;100689.56;4972481;28;20045;-70
2021/08/22 02:59:21;;;;;;;8.35;2.40;;;;;;;25.74;55.49;100671.69;4971782;28;20078;-71
2021/08/22 03:01:48;;;;;;;10.00;2.58;;;;;;;25.76;55.42;100679.75;4972260;28;20050;-71
2021/08/22 03:04:16;;;;;;;7.75;2.40;;;;;;;25.76;55.37;100682.47;4971878;28;20563;-71
2021/08/22 03:06:43;;;;;;;7.10;2.90;;;;;;;25.75;55.63;100680.69;4971468;28;20043;-71
2021/08/22 03:09:11;;;;;;;11.50;3.60;;;;;;;25.75;56.08;100684.28;4971735;28;20075;-70
2021/08/22 03:11:38;;;;;;;10.02;2.55;;;;;;;25.79;56.12;100694.03;4971571;28;20034;-70
2021/08/22 03:14:07;;;;;;;13.02;3.17;;;;;;;25.81;55.72;100683.09;4971568;28;20050;-70
2021/08/22 03:16:35;;;;;;;5.90;1.92;;;;;;;25.80;56.12;100693.03;4973194;28;20124;-71
2021/08/22 03:19:02;;;;;;;10.35;2.88;;;;;;;25.82;56.23;100684.88;4970992;28;20043;-71
2021/08/22 03:21:30;;;;;;;7.82;2.60;;;;;;;25.84;56.33;100690.19;4972235;28;20043;-72
2021/08/22 03:23:58;;;;;;;7.13;3.15;;;;;;;25.84;55.90;100693.78;4971702;28;20057;-72
2021/08/22 03:26:25;;;;;;;10.27;3.05;;;;;;;25.83;55.99;100688.44;4971542;28;20053;-72
2021/08/22 03:28:53;;;;;;;7.65;3.08;;;;;;;25.85;56.32;100690.13;4971620;28;20043;-72
2021/08/22 03:31:22;;;;;;;9.82;2.80;;;;;;;25.88;56.17;100698.09;4971927;28;20411;-71
2021/08/22 03:33:49;;;;;;;5.28;2.50;;;;;;;25.85;56.17;100691.97;4970767;28;20047;-72
2021/08/22 03:36:18;;;;;;;6.57;2.53;;;;;;;25.82;56.29;100690.28;4972198;28;20141;-71
2021/08/22 03:38:46;;;;;;;7.97;2.95;;;;;;;25.83;56.49;100702.84;4971677;28;20106;-72
2021/08/22 03:41:13;;;;;;;9.32;2.90;;;;;;;25.84;56.14;100692.91;4971347;28;20047;-72
2021/08/22 03:43:41;;;;;;;8.27;2.80;;;;;;;25.84;56.34;100693.78;4972089;28;20047;-72
2021/08/22 03:46:08;;;;;;;10.55;3.13;;;;;;;25.84;56.57;100692.91;4971281;28;20050;-71
2021/08/22 03:48:37;;;;;;;9.23;3.13;;;;;;;25.87;56.58;100690.91;4971176;28;20043;-70
2021/08/22 03:51:04;;;;;;;8.90;3.22;;;;;;;25.84;56.27;100696.50;4972772;28;20042;-71
2021/08/22 03:53:32;;;;;;;8.02;3.25;;;;;;;25.86;56.27;100688.31;4970492;28;20047;-71
2021/08/22 03:55:59;;;;;;;9.88;3.70;;;;;;;25.90;56.44;100696.19;4971261;28;20058;-71
2021/08/22 03:58:26;;;;;;;8.80;3.00;;;;;;;25.93;56.46;100689.78;4970988;28;20454;-71
2021/08/22 04:00:54;;;;;;;7.95;2.95;;;;;;;26.01;56.39;100691.13;4970834;28;20534;-71
2021/08/22 04:03:22;;;;;;;7.70;2.60;;;;;;;26.07;55.82;100700.75;4971199;28;20517;-72
2021/08/22 04:05:50;;;;;;;8.45;2.45;;;;;;;26.14;55.59;100700.38;4971817;28;20043;-72
2021/08/22 04:08:23;;;;;;;7.82;2.83;;;;;;;26.17;55.59;100697.53;4969245;28;20487;-72
2021/08/22 04:10:51;;;;;;;6.63;2.58;;;;;;;26.24;55.43;100700.84;4971510;28;20094;-72
2021/08/22 04:13:19;;;;;;;7.55;2.80;;;;;;;26.23;55.23;100709.88;4970892;28;20071;-72
2021/08/22 04:15:47;;;;;;;9.43;2.40;;;;;;;26.20;55.14;100705.50;4970976;28;20038;-71
2021/08/22 04:18:14;;;;;;;10.18;3.25;;;;;;;26.22;55.49;100699.13;4971142;28;20047;-71
2021/08/22 04:20:42;;;;;;;11.98;2.90;;;;;;;26.23;55.42;100709.88;4970490;28;20043;-71
2021/08/22 04:23:11;;;;;;;10.55;2.95;;;;;;;26.25;55.18;100708.03;4970987;28;20138;-72
2021/08/22 04:25:38;;;;;;;7.25;2.88;;;;;;;26.26;54.99;100704.34;4971516;28;20403;-71
2021/08/22 04:28:06;;;;;;;6.50;2.38;;;;;;;26.29;55.09;100704.19;4971129;28;20046;-69
2021/08/22 04:30:34;;;;;;;5.43;2.40;;;;;;;26.29;55.12;100709.63;4971107;28;20553;-72
2021/08/22 04:33:02;;;;;;;7.20;3.08;;;;;;;26.35;55.12;100698.47;4971666;28;20047;-72
2021/08/22 04:35:29;;;;;;;6.63;2.47;;;;;;;26.41;54.75;100700.00;4970791;28;20043;-71
2021/08/22 04:37:57;;;;;;;8.80;3.03;;;;;;;26.40;54.84;100707.22;4971002;28;20054;-71
2021/08/22 04:40:27;;;;;;;8.00;2.40;;;;;;;26.46;54.93;100700.63;4970848;28;20057;-70
2021/08/22 04:42:54;;;;;;;8.75;3.05;;;;;;;26.50;54.83;100707.66;4971058;28;20044;-72
2021/08/22 04:45:21;;;;;;;11.20;2.88;;;;;;;26.56;54.85;100707.34;4970949;28;20039;-71
2021/08/22 04:47:48;;;;;;;8.95;2.88;;;;;;;26.60;54.94;100711.63;4970478;28;20039;-71
2021/08/22 04:50:16;;;;;;;5.90;2.55;;;;;;;26.61;54.79;100713.38;4969483;28;20078;-71
2021/08/22 04:52:43;;;;;;;8.45;2.60;;;;;;;26.64;55.04;100698.81;4970127;28;20047;-72
2021/08/22 04:55:11;;;;;;;8.88;2.90;;;;;;;26.68;54.83;100698.56;4955279;28;20209;-72
2021/08/22 04:57:40;;;;;;;9.88;2.78;;;;;;;26.73;55.31;100706.44;4969895;28;20046;-71
2021/08/22 05:00:09;;;;;;;8.50;2.95;;;;;;;26.81;55.48;100707.81;4971191;28;20049;-70
2021/08/22 05:02:36;;;;;;;9.52;2.88;;;;;;;26.87;55.17;100712.03;4974862;28;20043;-70
2021/08/22 05:05:04;;;;;;;12.60;3.30;;;;;;;26.99;55.85;100714.13;4974931;28;20086;-71
2021/08/22 05:07:32;;;;;;;10.85;3.65;;;;;;;27.23;55.65;100709.25;4975881;28;20394;-71
2021/08/22 05:09:59;;;;;;;7.28;3.00;;;;;;;27.54;54.96;100714.75;4982195;28;20047;-71
2021/08/22 05:12:26;;;;;;;13.07;3.55;;;;;;;27.84;54.20;100714.88;4976151;28;20042;-71
2021/08/22 05:14:55;;;;;;;12.13;3.50;;;;;;;28.19;53.16;100723.75;4985282;28;20053;-71
2021/08/22 05:17:22;;;;;;;11.15;3.00;;;;;;;28.45;52.87;100725.81;4991654;28;20053;-71
2021/08/22 05:19:50;;;;;;;11.98;3.13;;;;;;;28.79;52.14;100723.84;4975407;28;20093;-71
2021/08/22 05:22:17;;;;;;;15.38;3.30;;;;;;;29.09;51.84;100724.66;4976847;28;20078;-71
2021/08/22 05:24:44;;;;;;;11.02;3.03;;;;;;;29.30;51.32;100726.06;4979796;28;20039;-71
2021/08/22 05:27:12;;;;;;;11.55;3.20;;;;;;;29.22;51.14;100722.94;4982895;28;20414;-71
2021/08/22 05:29:39;;;;;;;9.05;3.10;;;;;;;29.39;51.43;100719.19;4987262;28;20063;-71
2021/08/22 05:32:08;;;;;;;11.82;2.97;;;;;;;29.61;50.42;100735.03;4973895;28;20513;-71
2021/08/22 05:34:36;;;;;;;15.30;3.38;;;;;;;29.85;50.45;100732.59;4974347;28;20043;-69
2021/08/22 05:37:03;;;;;;;8.02;2.67;;;;;;;30.01;49.68;100720.59;4979528;28;20043;-71
2021/08/22 05:39:31;;;;;;;10.70;2.53;;;;;;;30.18;48.83;100737.69;4975860;28;20618;-72
2021/08/22 05:41:58;;;;;;;9.25;3.28;;;;;;;30.09;48.81;100731.88;4973316;28;20047;-71
2021/08/22 05:44:26;;;;;;;10.18;2.90;;;;;;;30.42;48.84;100730.59;4978810;28;20051;-71
2021/08/22 05:46:53;;;;;;;11.55;2.67;;;;;;;30.72;48.25;100738.59;4978630;28;20138;-71
2021/08/22 05:49:23;;;;;;;11.80;3.60;;;;;;;30.86;47.90;100744.81;4970367;28;20082;-72
2021/08/22 05:51:50;;;;;;;10.82;3.03;;;;;;;31.06;47.54;100746.19;4973817;28;20050;-71
2021/08/22 05:54:17;;;;;;;9.82;2.90;;;;;;;31.10;45.83;100735.97;4968729;28;20105;-72
2021/08/22 05:56:44;;;;;;;7.30;2.17;;;;;;;31.02;46.32;100744.66;4973064;28;20042;-71
2021/08/22 05:59:12;;;;;;;12.65;2.55;;;;;;;31.31;45.82;100739.03;4966325;28;20047;-71
2021/08/22 06:01:40;;;;;;;9.73;2.40;;;;;;;31.57;45.00;100749.81;4973441;28;20368;-72
2021/08/22 06:04:07;;;;;;;7.53;2.35;;;;;;;31.60;44.83;100752.38;4955689;28;20047;-71
2021/08/22 06:06:40;;;;;;;11.52;2.75;;;;;;;32.01;44.39;100753.94;4972962;28;20043;-71
2021/08/22 06:09:07;;;;;;;9.10;2.83;;;;;;;31.87;43.82;100759.53;4972627;28;20050;-71
2021/08/22 06:11:35;;;;;;;11.27;2.53;;;;;;;31.40;44.20;100760.19;4973245;28;20039;-71
2021/08/22 06:14:03;;;;;;;10.90;2.55;;;;;;;31.19;44.11;100768.03;4967806;28;20511;-71
2021/08/22 06:16:30;;;;;;;11.10;2.55;;;;;;;31.53;42.73;100755.59;4972889;28;20046;-71
2021/08/22 06:18:58;;;;;;;7.85;1.90;;;;;;;31.62;42.66;100766.78;4972155;28;20042;-71
2021/08/22 06:21:26;;;;;;;10.60;2.63;;;;;;;31.60;42.38;100766.00;4972350;28;21217;-71
2021/08/22 06:23:57;;;;;;;8.82;2.38;;;;;;;31.82;41.54;100759.88;4972618;28;20039;-71
2021/08/22 06:26:25;;;;;;;13.70;2.90;;;;;;;31.94;41.55;100777.22;4972447;28;20039;-71
2021/08/22 06:28:52;;;;;;;12.05;2.65;;;;;;;31.92;41.55;100768.25;4971644;28;20039;-71
2021/08/22 06:31:20;;;;;;;10.65;2.65;;;;;;;31.64;41.97;100769.38;4973147;28;20047;-70
2021/08/22 06:33:47;;;;;;;11.60;2.45;;;;;;;31.79;42.03;100775.59;4970999;28;20042;-70
2021/08/22 06:36:14;;;;;;;8.30;2.17;;;;;;;32.15;41.90;100777.53;4971463;28;20043;-70
2021/08/22 06:38:42;;;;;;;9.25;2.10;;;;;;;32.29;40.84;100774.66;4968976;28;20049;-71
2021/08/22 06:41:11;;;;;;;9.20;2.33;;;;;;;32.54;40.23;100781.88;4971802;28;20603;-71
2021/08/22 06:43:38;;;;;;;10.73;3.00;;;;;;;32.85;39.96;100773.09;4971258;28;20035;-70
2021/08/22 06:46:06;;;;;;;10.30;2.10;;;;;;;32.31;40.51;100781.75;4970767;28;20039;-71
2021/08/22 06:48:33;;;;;;;9.20;2.85;;;;;;;32.06;41.32;100793.59;4968524;28;20503;-72
2021/08/22 06:51:02;;;;;;;9.77;2.65;;;;;;;32.48;40.22;100794.16;4965248;28;20062;-71
2021/08/22 06:53:29;;;;;;;9.15;2.78;;;;;;;32.66;39.54;100780.94;4972690;28;20047;-70
2021/08/22 06:55:57;;;;;;;8.43;2.33;;;;;;;32.84;38.71;100787.78;4972449;28;20448;-71
2021/08/22 06:58:25;;;;;;;8.90;2.95;;;;;;;32.94;38.84;100775.13;4972195;28;20039;-71
2021/08/22 07:00:53;;;;;;;15.95;2.85;;;;;;;32.95;38.50;100776.84;4962653;28;20042;-70
2021/08/22 07:03:20;;;;;;;9.88;2.50;;;;;;;33.08;39.00;100777.66;4966221;28;20063;-70
2021/08/22 07:05:47;;;;;;;8.20;2.38;;;;;;;32.83;39.54;100775.94;4964543;28;20047;-72
2021/08/22 07:08:14;;;;;;;10.40;2.50;;;;;;;32.86;39.96;100777.59;4966954;28;20049;-71
2021/08/22 07:10:42;;;;;;;12.02;2.60;;;;;;;32.79;40.09;100776.31;4963736;28;20047;-72
2021/08/22 07:13:09;;;;;;;12.68;3.15;;;;;;;32.88;40.63;100772.88;4956956;28;20047;-71
2021/08/22 07:15:38;;;;;;;9.63;2.95;;;;;;;32.99;40.23;100772.91;4959148;28;20548;-71
2021/08/22 07:18:06;;;;;;;7.07;2.58;;;;;;;32.68;40.94;100774.41;4967045;28;20062;-72
2021/08/22 07:20:33;;;;;;;9.90;2.55;;;;;;;32.54;41.43;100766.34;4970609;28;20379;-71
2021/08/22 07:23:01;;;;;;;11.50;2.83;;;;;;;32.72;41.51;100767.72;4967034;28;20050;-72
2021/08/22 07:25:28;;;;;;;8.80;2.53;;;;;;;32.98;41.26;100771.16;4967419;28;20054;-72
2021/08/22 07:27:55;;;;;;;10.48;2.83;;;;;;;33.07;41.46;100775.94;4965812;28;20053;-70
2021/08/22 07:30:25;;;;;;;11.10;2.65;;;;;;;32.99;41.43;100772.91;4967397;28;20647;-69
2021/08/22 07:32:55;;;;;;;13.57;3.40;;;;;;;33.13;41.25;100782.78;4964637;28;20059;-69
2021/08/22 07:35:23;;;;;;;12.60;3.58;;;;;;;33.10;41.76;100775.69;4966597;28;21696;-69
2021/08/22 07:37:50;;;;;;;9.95;2.80;;;;;;;33.32;41.39;100784.97;4967580;28;20046;-70
2021/08/22 07:40:17;;;;;;;11.70;2.72;;;;;;;33.50;40.77;100783.50;4962248;28;20118;-69
2021/08/22 07:42:45;;;;;;;17.00;3.33;;;;;;;33.82;40.92;100790.03;4964841;28;20070;-70
2021/08/22 07:45:15;;;;;;;10.43;2.78;;;;;;;34.10;40.26;100782.31;4964862;28;20054;-70
2021/08/22 07:47:44;;;;;;;10.95;3.22;;;;;;;33.99;40.56;100778.59;4964120;28;20062;-69
2021/08/22 07:50:13;;;;;;;11.77;3.25;;;;;;;33.81;40.99;100796.50;4965640;28;20098;-70
2021/08/22 07:52:40;;;;;;;10.93;2.67;;;;;;;33.60;40.84;100800.97;4960236;28;20049;-71
2021/08/22 07:55:08;;;;;;;16.35;3.17;;;;;;;33.79;40.71;100784.81;4963341;28;20050;-70
2021/08/22 07:57:35;;;;;;;5.75;2.22;;;;;;;33.77;40.46;100791.41;4966864;28;20050;-71
2021/08/22 08:00:03;;;;;;;10.85;2.97;;;;;;;33.84;40.24;100792.66;4965071;28;20046;-71
2021/08/22 08:02:31;;;;;;;12.20;2.78;;;;;;;33.85;40.28;100784.31;4965018;28;20053;-70
2021/08/22 08:04:58;;;;;;;11.82;3.08;;;;;;;33.81;40.30;100793.78;4962621;28;20054;-71
2021/08/22 08:07:27;;;;;;;10.40;2.85;;;;;;;34.00;40.52;100795.91;4958685;28;20066;-71
2021/08/22 08:09:55;;;;;;;11.45;2.88;;;;;;;34.00;40.11;100796.75;4957694;28;20483;-71
2021/08/22 08:12:23;;;;;;;13.07;2.95;;;;;;;33.89;40.51;100787.66;4960268;28;20445;-70
2021/08/22 08:14:50;;;;;;;8.85;2.63;;;;;;;34.07;39.31;100786.16;4961889;28;20325;-71
2021/08/22 08:17:18;;;;;;;12.70;2.80;;;;;;;34.30;38.94;100793.41;4961461;28;20038;-71
2021/08/22 08:19:45;;;;;;;12.77;3.38;;;;;;;34.22;38.85;100795.03;4960864;28;20046;-71
2021/08/22 08:22:13;;;;;;;10.27;2.80;;;;;;;34.21;39.50;100796.00;4959796;28;20418;-72
2021/08/22 08:24:41;;;;;;;13.88;3.25;;;;;;;34.32;39.60;100791.41;4960657;28;20360;-72
2021/08/22 08:27:10;;;;;;;11.05;3.08;;;;;;;34.44;39.56;100786.78;4957213;28;20043;-72
2021/08/22 08:29:37;;;;;;;9.68;2.42;;;;;;;34.48;39.38;100781.88;4959063;28;20447;-69
2021/08/22 08:32:05;;;;;;;13.85;3.10;;;;;;;34.00;40.16;100794.00;4966997;28;20073;-72
2021/08/22 08:34:33;;;;;;;8.50;2.50;;;;;;;33.78;40.52;100787.69;4966806;28;20055;-71
2021/08/22 08:37:00;;;;;;;13.65;2.72;;;;;;;33.78;41.02;100791.28;4970895;28;20051;-71
2021/08/22 08:39:28;;;;;;;10.48;3.15;;;;;;;33.75;41.30;100793.41;4970950;28;20054;-71
2021/08/22 08:42:13;;;;;;;12.55;2.78;;;;;;;33.92;40.68;100788.31;4970856;28;20054;-72
2021/08/22 08:44:41;;;;;;;10.98;2.88;;;;;;;33.98;40.20;100789.66;4970817;28;20051;-72
2021/08/22 08:47:09;;;;;;;11.80;3.05;;;;;;;34.17;40.02;100802.72;4969549;28;20046;-72
2021/08/22 08:49:38;;;;;;;14.20;2.45;;;;;;;34.51;40.01;100806.31;4970202;28;20035;-72
2021/08/22 08:52:08;;;;;;;13.13;3.33;;;;;;;34.74;39.45;100789.69;4969719;28;20058;-72
2021/08/22 08:54:36;;;;;;;9.82;2.17;;;;;;;34.23;39.65;100794.03;4971405;28;20049;-73
2021/08/22 08:57:05;;;;;;;7.65;3.05;;;;;;;34.25;39.19;100803.00;4969768;28;20062;-72
2021/08/22 08:59:34;;;;;;;11.13;3.35;;;;;;;34.44;38.84;100803.22;4970853;28;20507;-72
2021/08/22 09:02:01;;;;;;;8.73;2.63;;;;;;;34.64;38.38;100809.78;4971158;28;20046;-73
2021/08/22 09:04:33;;;;;;;9.00;2.80;;;;;;;34.59;38.16;100812.88;4970359;28;20130;-72
2021/08/22 09:07:44;;;;;;;12.77;3.20;;;;;;;34.69;37.99;100794.66;4967615;28;20080;-72
2021/08/22 09:10:44;;;;;;;10.57;2.90;;;;;;;34.70;38.10;100799.16;4963259;28;20051;-72
2021/08/22 09:16:59;;;;;;;10.82;2.88;;;;;;;35.04;38.29;100790.81;5096401;27;20132;-72
2021/08/22 09:20:00;;;;;;;15.57;3.28;;;;;;;35.13;37.55;100793.63;5096984;28;20060;-71
2021/08/22 09:23:15;;;;;;;11.40;3.25;;;;;;;35.07;36.79;100796.03;5100870;28;20059;-70
2021/08/22 09:26:16;;;;;;;7.93;2.83;;;;;;;34.98;36.86;100805.94;5098819;28;20047;-70
2021/08/22 09:29:32;;;;;;;10.52;3.20;;;;;;;34.93;37.02;100807.31;5074165;28;20051;-70
2021/08/22 09:32:47;;;;;;;13.98;2.90;;;;;;;34.86;37.33;100806.09;5102358;28;20040;-71
2021/08/22 09:36:00;;;;;;;11.48;3.33;;;;;;;34.44;37.94;100816.06;5097285;28;20068;-71
2021/08/22 09:39:05;;;;;;;16.33;3.40;;;;;;;34.35;38.56;100814.94;5091730;28;20102;-71
2021/08/22 09:42:13;;;;;;;13.15;2.85;;;;;;;34.36;37.98;100823.06;5093049;27;20055;-71
2021/08/22 09:45:23;;;;;;;11.93;3.70;;;;;;;34.07;37.96;100812.72;5094245;28;20520;-71
2021/08/22 09:48:38;;;;;;;12.30;3.47;;;;;;;34.09;38.03;100797.88;5093041;27;20408;-71
2021/08/22 09:52:00;;;;;;;13.05;3.65;;;;;;;34.10;37.58;100804.22;5096771;28;20040;-70
2021/08/22 09:55:02;;;;;;;10.20;3.47;;;;;;;33.74;37.95;100800.75;5096649;28;20514;-70
2021/08/22 09:58:26;;;;;;;14.00;3.28;;;;;;;33.87;38.20;100817.09;5100644;28;20024;-70
2021/08/22 10:01:27;;;;;;;12.63;3.57;;;;;;;33.87;37.99;100806.13;5098760;27;20384;-71
2021/08/22 10:04:33;;;;;;;12.48;3.20;;;;;;;33.57;38.65;100810.28;5095085;28;20090;-71
2021/08/22 10:07:17;;;;;;;10.45;3.10;;;;;;;33.58;38.64;100808.41;5098200;28;20067;-72
2021/08/22 10:09:49;;;;;;;11.32;3.30;;;;;;;33.36;38.51;100819.31;5099351;28;20112;-70
2021/08/22 10:12:17;;;;;;;13.13;3.38;;;;;;;33.51;38.74;100816.25;5100352;28;20040;-71
2021/08/22 10:14:45;;;;;;;12.77;3.63;;;;;;;33.53;39.51;100821.63;5098426;28;20051;-72
2021/08/22 10:17:19;;;;;;;11.52;3.22;;;;;;;33.67;39.69;100820.53;5101769;28;20046;-72
2021/08/22 10:19:48;;;;;;;14.18;3.38;;;;;;;33.62;39.25;100826.34;5099239;28;20028;-72
2021/08/22 10:22:18;;;;;;;10.88;3.10;;;;;;;33.68;39.49;100814.91;5102102;28;20042;-72
2021/08/22 10:24:52;;;;;;;12.75;3.60;;;;;;;33.91;39.47;100835.00;5101783;28;20499;-72
2021/08/22 10:27:59;;;;;;;11.60;3.70;;;;;;;33.91;39.31;100832.28;5088879;28;20036;-71
2021/08/22 10:30:28;;;;;;;11.00;3.80;;;;;;;33.78;39.69;100831.50;5075466;28;20042;-72
2021/08/22 10:33:27;;;;;;;17.98;3.45;;;;;;;33.95;39.02;100834.63;5088111;28;20040;-72
2021/08/22 10:36:28;;;;;;;12.02;3.53;;;;;;;34.06;39.09;100841.13;5085741;28;20097;-72
2021/08/22 10:39:27;;;;;;;10.13;2.90;;;;;;;34.03;38.50;100827.66;5084550;28;20028;-71
2021/08/22 10:41:55;;;;;;;12.18;3.85;;;;;;;33.82;39.01;100835.75;5086256;28;20063;-71
2021/08/22 10:44:39;;;;;;;12.52;3.50;;;;;;;33.92;38.92;100829.41;5081857;28;20071;-71
2021/08/22 10:47:07;;;;;;;;;;;;;;;33.98;38.99;100834.41;5088224;28;20060;-71
2021/08/22 10:49:58;;;;;;;13.23;3.50;;;;;;;34.22;38.84;100834.28;5087733;28;19926;-71
2021/08/22 10:52:27;;;;;;;12.45;3.40;;;;;;;34.07;39.04;100832.75;5088699;28;20045;-71
2021/08/22 10:55:30;;;;;;;9.70;3.08;;;;;;;33.88;38.69;100827.03;5088649;28;20048;-72
2021/08/22 10:57:58;;;;;;;15.10;3.95;;;;;;;33.61;39.70;100824.59;5004045;28;20050;-72
2021/08/22 11:00:27;;;;;;;11.70;3.83;;;;;;;33.42;40.14;100825.19;5003609;28;20170;-71
2021/08/22 11:02:55;;;;;;;15.20;4.60;;;;;;;33.43;40.10;100832.41;5031455;28;20056;-71
2021/08/22 11:05:24;;;;;;;12.77;3.53;;;;;;;33.67;39.94;100826.00;5083427;28;20055;-72
2021/08/22 11:07:52;;;;;;;12.15;2.97;;;;;;;34.00;39.39;100820.56;5084774;28;20048;-71
2021/08/22 11:10:21;;;;;;;11.98;3.58;;;;;;;34.00;39.23;100818.69;5087813;28;20395;-72
2021/08/22 11:12:52;;;;;;;14.40;3.33;;;;;;;34.04;38.88;100830.28;5089834;28;20033;-71
2021/08/22 11:15:25;;;;;;;13.40;5.78;;;;;;;34.13;38.69;100820.44;5088969;28;20120;-71
2021/08/22 11:17:54;;;;;;;10.50;3.75;;;;;;;34.47;38.14;100829.50;5083682;28;20052;-72
2021/08/22 11:20:27;;;;;;;12.70;3.85;;;;;;;34.60;37.92;100835.72;5082749;28;20044;-72
2021/08/22 11:23:04;;;;;;;12.05;4.80;;;;;;;34.82;37.44;100827.47;5089737;28;20044;-71
2021/08/22 11:25:31;;;;;;;13.82;3.47;;;;;;;34.98;37.29;100832.53;5082519;28;20511;-71
2021/08/22 11:28:09;;;;;;;10.02;3.17;;;;;;;35.23;36.69;100831.31;5081277;28;20059;-71
2021/08/22 11:30:37;;;;;;;12.07;3.40;;;;;;;35.45;36.41;100821.06;5079130;28;20040;-71
2021/08/22 11:33:05;;;;;;;9.15;2.97;;;;;;;35.40;35.80;100812.34;5086091;28;20036;-72
2021/08/22 11:35:36;;;;;;;9.38;2.70;;;;;;;35.40;35.76;100811.47;5079623;28;20098;-70
2021/08/22 11:38:04;;;;;;;10.32;3.20;;;;;;;35.50;35.39;100809.69;5070622;28;20492;-71
2021/08/22 11:40:32;;;;;;;14.60;3.25;;;;;;;35.51;35.17;100809.53;5079611;28;20044;-71
2021/08/22 11:43:02;;;;;;;7.55;2.97;;;;;;;35.28;35.58;100810.69;5092103;28;20117;-71
2021/08/22 11:45:33;;;;;;;8.75;3.20;;;;;;;35.61;35.26;100815.09;5089885;28;20040;-71